sensor_id;sensor_type;location;lat;lon;timestamp;P1;durP1;ratioP1;P2;durP2;ratioP2
38937;SDS011;24727;51.974;20.868;2023-11-22T00:01:24;15.00;;;7.70;;
38937;SDS011;24727;51.974;20.868;2023-11-22T00:03:51;16.73;;;7.55;;
38937;SDS011;24727;51.974;20.868;2023-11-22T00:06:17;13.68;;;7.07;;
38937;SDS011;24727;51.974;20.868;2023-11-22T00:08:47;15.98;;;8.25;;
38937;SDS011;24727;51.974;20.868;2023-11-22T00:11:14;13.52;;;6.78;;
38937;SDS011;24727;51.974;20.868;2023-11-22T00:13:46;18.15;;;7.32;;
38937;SDS011;24727;51.974;20.868;2023-11-22T00:16:15;13.95;;;6.65;;
38937;SDS011;24727;51.974;20.868;2023-11-22T00:18:41;19.35;;;8.75;;
38937;SDS011;24727;51.974;20.868;2023-11-22T00:21:07;12.95;;;6.22;;
38937;SDS011;24727;51.974;20.868;2023-11-22T00:23:34;10.20;;;5.68;;
38937;SDS011;24727;51.974;20.868;2023-11-22T00:26:00;14.88;;;5.85;;
38937;SDS011;24727;51.974;20.868;2023-11-22T00:28:26;14.65;;;7.13;;
38937;SDS011;24727;51.974;20.868;2023-11-22T00:30:54;16.65;;;7.00;;
38937;SDS011;24727;51.974;20.868;2023-11-22T00:33:26;16.85;;;6.95;;
38937;SDS011;24727;51.974;20.868;2023-11-22T00:35:53;16.83;;;7.10;;
38937;SDS011;24727;51.974;20.868;2023-11-22T00:38:22;14.40;;;7.07;;
38937;SDS011;24727;51.974;20.868;2023-11-22T00:40:48;15.45;;;7.15;;
38937;SDS011;24727;51.974;20.868;2023-11-22T00:43:15;12.32;;;6.28;;
38937;SDS011;24727;51.974;20.868;2023-11-22T00:45:41;11.55;;;6.32;;
38937;SDS011;24727;51.974;20.868;2023-11-22T00:48:07;19.38;;;6.97;;
38937;SDS011;24727;51.974;20.868;2023-11-22T00:50:35;11.88;;;5.63;;
38937;SDS011;24727;51.974;20.868;2023-11-22T00:53:01;13.43;;;6.88;;
38937;SDS011;24727;51.974;20.868;2023-11-22T00:55:27;12.95;;;6.43;;
38937;SDS011;24727;51.974;20.868;2023-11-22T01:00:30;11.18;;;5.72;;
38937;SDS011;24727;51.974;20.868;2023-11-22T01:02:56;11.65;;;6.00;;
38937;SDS011;24727;51.974;20.868;2023-11-22T01:05:22;11.25;;;5.07;;
38937;SDS011;24727;51.974;20.868;2023-11-22T01:07:49;11.95;;;6.18;;
38937;SDS011;24727;51.974;20.868;2023-11-22T01:10:16;10.18;;;5.65;;
38937;SDS011;24727;51.974;20.868;2023-11-22T01:12:42;10.13;;;5.38;;
38937;SDS011;24727;51.974;20.868;2023-11-22T01:15:08;11.70;;;6.22;;
38937;SDS011;24727;51.974;20.868;2023-11-22T01:17:35;11.27;;;6.20;;
38937;SDS011;24727;51.974;20.868;2023-11-22T01:20:01;12.25;;;6.13;;
38937;SDS011;24727;51.974;20.868;2023-11-22T01:22:28;10.40;;;5.28;;
38937;SDS011;24727;51.974;20.868;2023-11-22T01:24:55;11.20;;;6.13;;
38937;SDS011;24727;51.974;20.868;2023-11-22T01:27:22;11.73;;;6.00;;
38937;SDS011;24727;51.974;20.868;2023-11-22T01:29:49;10.07;;;5.90;;
38937;SDS011;24727;51.974;20.868;2023-11-22T01:32:16;11.35;;;5.88;;
38937;SDS011;24727;51.974;20.868;2023-11-22T01:34:43;13.20;;;6.40;;
38937;SDS011;24727;51.974;20.868;2023-11-22T01:37:11;8.50;;;5.18;;
38937;SDS011;24727;51.974;20.868;2023-11-22T01:39:39;10.65;;;5.82;;
38937;SDS011;24727;51.974;20.868;2023-11-22T01:42:09;8.47;;;4.80;;
38937;SDS011;24727;51.974;20.868;2023-11-22T01:44:36;10.68;;;5.18;;
38937;SDS011;24727;51.974;20.868;2023-11-22T01:47:03;12.00;;;5.10;;
38937;SDS011;24727;51.974;20.868;2023-11-22T01:49:31;10.55;;;4.90;;
38937;SDS011;24727;51.974;20.868;2023-11-22T01:51:58;12.52;;;5.03;;
38937;SDS011;24727;51.974;20.868;2023-11-22T01:54:26;12.27;;;4.78;;
38937;SDS011;24727;51.974;20.868;2023-11-22T01:56:55;8.13;;;4.40;;
38937;SDS011;24727;51.974;20.868;2023-11-22T01:59:21;7.97;;;4.47;;
38937;SDS011;24727;51.974;20.868;2023-11-22T02:01:47;10.23;;;4.72;;
38937;SDS011;24727;51.974;20.868;2023-11-22T02:04:15;9.85;;;4.80;;
38937;SDS011;24727;51.974;20.868;2023-11-22T02:06:45;9.32;;;5.22;;
38937;SDS011;24727;51.974;20.868;2023-11-22T02:09:11;10.60;;;4.78;;
38937;SDS011;24727;51.974;20.868;2023-11-22T02:11:42;8.68;;;4.13;;
38937;SDS011;24727;51.974;20.868;2023-11-22T02:14:10;9.13;;;4.65;;
38937;SDS011;24727;51.974;20.868;2023-11-22T02:16:37;10.25;;;5.22;;
38937;SDS011;24727;51.974;20.868;2023-11-22T02:19:04;10.60;;;5.13;;
38937;SDS011;24727;51.974;20.868;2023-11-22T02:21:32;7.80;;;4.57;;
38937;SDS011;24727;51.974;20.868;2023-11-22T02:23:59;8.98;;;5.28;;
38937;SDS011;24727;51.974;20.868;2023-11-22T02:26:27;11.38;;;5.10;;
38937;SDS011;24727;51.974;20.868;2023-11-22T02:28:53;9.52;;;5.57;;
38937;SDS011;24727;51.974;20.868;2023-11-22T02:31:19;11.55;;;5.25;;
38937;SDS011;24727;51.974;20.868;2023-11-22T02:33:47;9.77;;;5.05;;
38937;SDS011;24727;51.974;20.868;2023-11-22T02:36:13;10.82;;;5.65;;
38937;SDS011;24727;51.974;20.868;2023-11-22T02:38:39;10.00;;;5.20;;
38937;SDS011;24727;51.974;20.868;2023-11-22T02:41:05;10.27;;;5.28;;
38937;SDS011;24727;51.974;20.868;2023-11-22T02:43:32;10.30;;;5.00;;
38937;SDS011;24727;51.974;20.868;2023-11-22T02:45:58;9.43;;;5.28;;
38937;SDS011;24727;51.974;20.868;2023-11-22T02:48:24;7.55;;;4.57;;
38937;SDS011;24727;51.974;20.868;2023-11-22T02:50:50;8.75;;;4.88;;
38937;SDS011;24727;51.974;20.868;2023-11-22T02:53:17;9.93;;;4.90;;
38937;SDS011;24727;51.974;20.868;2023-11-22T02:55:43;11.32;;;5.45;;
38937;SDS011;24727;51.974;20.868;2023-11-22T02:58:10;9.30;;;4.03;;
38937;SDS011;24727;51.974;20.868;2023-11-22T03:00:52;9.85;;;4.35;;
38937;SDS011;24727;51.974;20.868;2023-11-22T03:05:46;8.07;;;4.43;;
38937;SDS011;24727;51.974;20.868;2023-11-22T03:08:12;7.78;;;4.30;;
38937;SDS011;24727;51.974;20.868;2023-11-22T03:10:39;6.55;;;3.38;;
38937;SDS011;24727;51.974;20.868;2023-11-22T03:13:05;8.20;;;4.20;;
38937;SDS011;24727;51.974;20.868;2023-11-22T03:15:32;8.75;;;3.85;;
38937;SDS011;24727;51.974;20.868;2023-11-22T03:17:58;7.32;;;4.22;;
38937;SDS011;24727;51.974;20.868;2023-11-22T03:20:24;6.90;;;3.83;;
38937;SDS011;24727;51.974;20.868;2023-11-22T03:22:50;9.20;;;3.92;;
38937;SDS011;24727;51.974;20.868;2023-11-22T03:25:16;7.10;;;3.42;;
38937;SDS011;24727;51.974;20.868;2023-11-22T03:27:45;7.35;;;3.67;;
38937;SDS011;24727;51.974;20.868;2023-11-22T03:30:12;6.10;;;3.65;;
38937;SDS011;24727;51.974;20.868;2023-11-22T03:32:40;9.65;;;4.05;;
38937;SDS011;24727;51.974;20.868;2023-11-22T03:35:07;6.82;;;3.67;;
38937;SDS011;24727;51.974;20.868;2023-11-22T03:37:34;7.88;;;4.10;;
38937;SDS011;24727;51.974;20.868;2023-11-22T03:40:00;8.23;;;3.75;;
38937;SDS011;24727;51.974;20.868;2023-11-22T03:42:27;7.43;;;4.15;;
38937;SDS011;24727;51.974;20.868;2023-11-22T03:44:54;7.97;;;3.83;;
38937;SDS011;24727;51.974;20.868;2023-11-22T03:47:20;7.95;;;3.95;;
38937;SDS011;24727;51.974;20.868;2023-11-22T03:49:47;7.63;;;3.78;;
38937;SDS011;24727;51.974;20.868;2023-11-22T03:52:13;8.73;;;3.92;;
38937;SDS011;24727;51.974;20.868;2023-11-22T03:54:41;6.47;;;3.58;;
38937;SDS011;24727;51.974;20.868;2023-11-22T03:57:07;9.68;;;3.75;;
38937;SDS011;24727;51.974;20.868;2023-11-22T03:59:34;6.57;;;3.45;;
38937;SDS011;24727;51.974;20.868;2023-11-22T04:02:00;7.60;;;3.53;;
38937;SDS011;24727;51.974;20.868;2023-11-22T04:04:28;6.45;;;3.28;;
38937;SDS011;24727;51.974;20.868;2023-11-22T04:06:54;8.27;;;3.72;;
38937;SDS011;24727;51.974;20.868;2023-11-22T04:09:20;6.72;;;3.30;;
38937;SDS011;24727;51.974;20.868;2023-11-22T04:11:46;6.28;;;3.42;;
38937;SDS011;24727;51.974;20.868;2023-11-22T04:14:13;7.47;;;3.42;;
38937;SDS011;24727;51.974;20.868;2023-11-22T04:16:40;9.38;;;3.58;;
38937;SDS011;24727;51.974;20.868;2023-11-22T04:19:07;16.65;;;4.60;;
38937;SDS011;24727;51.974;20.868;2023-11-22T04:21:33;6.05;;;3.08;;
38937;SDS011;24727;51.974;20.868;2023-11-22T04:24:01;6.80;;;3.83;;
38937;SDS011;24727;51.974;20.868;2023-11-22T04:26:28;6.47;;;3.88;;
38937;SDS011;24727;51.974;20.868;2023-11-22T04:28:54;6.63;;;3.70;;
38937;SDS011;24727;51.974;20.868;2023-11-22T04:31:20;6.55;;;3.10;;
38937;SDS011;24727;51.974;20.868;2023-11-22T04:33:45;5.93;;;3.67;;
38937;SDS011;24727;51.974;20.868;2023-11-22T04:36:12;6.90;;;3.25;;
38937;SDS011;24727;51.974;20.868;2023-11-22T04:38:38;9.65;;;4.80;;
38937;SDS011;24727;51.974;20.868;2023-11-22T04:41:11;8.35;;;4.15;;
38937;SDS011;24727;51.974;20.868;2023-11-22T04:43:37;8.30;;;3.70;;
38937;SDS011;24727;51.974;20.868;2023-11-22T04:46:09;5.47;;;3.20;;
38937;SDS011;24727;51.974;20.868;2023-11-22T04:48:35;8.68;;;3.63;;
38937;SDS011;24727;51.974;20.868;2023-11-22T04:51:08;9.00;;;5.20;;
38937;SDS011;24727;51.974;20.868;2023-11-22T04:53:33;6.75;;;3.92;;
38937;SDS011;24727;51.974;20.868;2023-11-22T04:55:59;6.43;;;4.07;;
38937;SDS011;24727;51.974;20.868;2023-11-22T04:58:32;9.82;;;4.20;;
38937;SDS011;24727;51.974;20.868;2023-11-22T05:00:59;7.68;;;3.92;;
38937;SDS011;24727;51.974;20.868;2023-11-22T05:03:27;6.65;;;3.50;;
38937;SDS011;24727;51.974;20.868;2023-11-22T05:05:53;11.27;;;4.18;;
38937;SDS011;24727;51.974;20.868;2023-11-22T05:08:20;6.18;;;3.95;;
38937;SDS011;24727;51.974;20.868;2023-11-22T05:10:52;6.15;;;3.53;;
38937;SDS011;24727;51.974;20.868;2023-11-22T05:13:19;8.18;;;3.90;;
38937;SDS011;24727;51.974;20.868;2023-11-22T05:15:52;6.18;;;3.38;;
38937;SDS011;24727;51.974;20.868;2023-11-22T05:18:19;6.60;;;3.50;;
38937;SDS011;24727;51.974;20.868;2023-11-22T05:20:47;7.70;;;4.10;;
38937;SDS011;24727;51.974;20.868;2023-11-22T05:23:13;7.30;;;3.75;;
38937;SDS011;24727;51.974;20.868;2023-11-22T05:25:39;5.95;;;3.22;;
38937;SDS011;24727;51.974;20.868;2023-11-22T05:28:06;7.38;;;3.35;;
38937;SDS011;24727;51.974;20.868;2023-11-22T05:30:33;12.30;;;4.55;;
38937;SDS011;24727;51.974;20.868;2023-11-22T05:33:00;11.02;;;4.30;;
38937;SDS011;24727;51.974;20.868;2023-11-22T05:35:26;9.13;;;4.07;;
38937;SDS011;24727;51.974;20.868;2023-11-22T05:37:52;9.07;;;4.72;;
38937;SDS011;24727;51.974;20.868;2023-11-22T05:40:18;8.30;;;4.03;;
38937;SDS011;24727;51.974;20.868;2023-11-22T05:42:46;5.28;;;2.92;;
38937;SDS011;24727;51.974;20.868;2023-11-22T05:45:13;6.78;;;3.30;;
38937;SDS011;24727;51.974;20.868;2023-11-22T05:47:40;7.20;;;4.10;;
38937;SDS011;24727;51.974;20.868;2023-11-22T05:50:09;6.13;;;3.38;;
38937;SDS011;24727;51.974;20.868;2023-11-22T05:52:36;7.90;;;3.38;;
38937;SDS011;24727;51.974;20.868;2023-11-22T05:55:05;6.45;;;3.53;;
38937;SDS011;24727;51.974;20.868;2023-11-22T05:57:33;7.03;;;3.63;;
38937;SDS011;24727;51.974;20.868;2023-11-22T06:00:01;7.70;;;3.42;;
38937;SDS011;24727;51.974;20.868;2023-11-22T06:02:27;6.50;;;3.85;;
38937;SDS011;24727;51.974;20.868;2023-11-22T06:04:53;13.95;;;5.93;;
38937;SDS011;24727;51.974;20.868;2023-11-22T06:07:21;9.13;;;4.40;;
38937;SDS011;24727;51.974;20.868;2023-11-22T06:09:47;8.48;;;4.68;;
38937;SDS011;24727;51.974;20.868;2023-11-22T06:12:14;9.32;;;4.28;;
38937;SDS011;24727;51.974;20.868;2023-11-22T06:14:41;8.90;;;4.60;;
38937;SDS011;24727;51.974;20.868;2023-11-22T06:17:07;8.80;;;4.72;;
38937;SDS011;24727;51.974;20.868;2023-11-22T06:19:33;7.00;;;4.10;;
38937;SDS011;24727;51.974;20.868;2023-11-22T06:22:01;8.85;;;3.95;;
38937;SDS011;24727;51.974;20.868;2023-11-22T06:24:28;8.57;;;4.38;;
38937;SDS011;24727;51.974;20.868;2023-11-22T06:26:54;8.38;;;5.05;;
38937;SDS011;24727;51.974;20.868;2023-11-22T06:29:26;7.13;;;3.92;;
38937;SDS011;24727;51.974;20.868;2023-11-22T06:34:20;7.80;;;4.25;;
38937;SDS011;24727;51.974;20.868;2023-11-22T06:36:46;11.10;;;4.90;;
38937;SDS011;24727;51.974;20.868;2023-11-22T06:39:18;9.05;;;4.93;;
38937;SDS011;24727;51.974;20.868;2023-11-22T06:41:45;13.35;;;5.40;;
38937;SDS011;24727;51.974;20.868;2023-11-22T06:44:13;6.22;;;4.32;;
38937;SDS011;24727;51.974;20.868;2023-11-22T06:46:39;15.48;;;6.18;;
38937;SDS011;24727;51.974;20.868;2023-11-22T06:49:05;10.50;;;5.53;;
38937;SDS011;24727;51.974;20.868;2023-11-22T06:51:32;9.15;;;4.97;;
38937;SDS011;24727;51.974;20.868;2023-11-22T06:53:59;9.13;;;4.90;;
38937;SDS011;24727;51.974;20.868;2023-11-22T06:56:31;8.95;;;4.28;;
38937;SDS011;24727;51.974;20.868;2023-11-22T06:59:00;12.07;;;4.65;;
38937;SDS011;24727;51.974;20.868;2023-11-22T07:01:25;12.57;;;4.85;;
38937;SDS011;24727;51.974;20.868;2023-11-22T07:03:52;7.70;;;4.15;;
38937;SDS011;24727;51.974;20.868;2023-11-22T07:06:19;9.52;;;4.85;;
38937;SDS011;24727;51.974;20.868;2023-11-22T07:08:47;7.13;;;3.60;;
38937;SDS011;24727;51.974;20.868;2023-11-22T07:11:20;8.63;;;4.07;;
38937;SDS011;24727;51.974;20.868;2023-11-22T07:13:49;11.50;;;5.28;;
38937;SDS011;24727;51.974;20.868;2023-11-22T07:16:15;6.68;;;3.47;;
38937;SDS011;24727;51.974;20.868;2023-11-22T07:18:42;10.50;;;4.47;;
38937;SDS011;24727;51.974;20.868;2023-11-22T07:21:09;9.63;;;4.43;;
38937;SDS011;24727;51.974;20.868;2023-11-22T07:23:37;10.68;;;4.40;;
38937;SDS011;24727;51.974;20.868;2023-11-22T07:26:03;16.00;;;8.65;;
38937;SDS011;24727;51.974;20.868;2023-11-22T07:28:33;13.52;;;6.43;;
38937;SDS011;24727;51.974;20.868;2023-11-22T07:31:01;25.30;;;12.57;;
38937;SDS011;24727;51.974;20.868;2023-11-22T07:33:27;49.15;;;20.67;;
38937;SDS011;24727;51.974;20.868;2023-11-22T07:35:53;29.88;;;12.45;;
38937;SDS011;24727;51.974;20.868;2023-11-22T07:38:19;16.25;;;7.78;;
38937;SDS011;24727;51.974;20.868;2023-11-22T07:40:45;18.10;;;8.73;;
38937;SDS011;24727;51.974;20.868;2023-11-22T07:43:11;25.48;;;11.07;;
38937;SDS011;24727;51.974;20.868;2023-11-22T07:45:43;18.02;;;6.82;;
38937;SDS011;24727;51.974;20.868;2023-11-22T07:48:12;16.30;;;7.15;;
38937;SDS011;24727;51.974;20.868;2023-11-22T07:50:38;15.03;;;7.00;;
38937;SDS011;24727;51.974;20.868;2023-11-22T07:53:05;13.38;;;6.53;;
38937;SDS011;24727;51.974;20.868;2023-11-22T07:55:33;16.85;;;8.15;;
38937;SDS011;24727;51.974;20.868;2023-11-22T07:58:02;14.82;;;7.40;;
38937;SDS011;24727;51.974;20.868;2023-11-22T08:00:28;33.88;;;12.80;;
38937;SDS011;24727;51.974;20.868;2023-11-22T08:02:56;54.03;;;20.67;;
38937;SDS011;24727;51.974;20.868;2023-11-22T08:05:24;15.90;;;7.13;;
38937;SDS011;24727;51.974;20.868;2023-11-22T08:07:50;12.95;;;4.72;;
38937;SDS011;24727;51.974;20.868;2023-11-22T08:10:17;6.88;;;3.65;;
38937;SDS011;24727;51.974;20.868;2023-11-22T08:12:46;8.75;;;4.47;;
38937;SDS011;24727;51.974;20.868;2023-11-22T08:15:15;14.63;;;5.65;;
38937;SDS011;24727;51.974;20.868;2023-11-22T08:17:41;18.25;;;6.85;;
38937;SDS011;24727;51.974;20.868;2023-11-22T08:20:08;17.33;;;5.60;;
38937;SDS011;24727;51.974;20.868;2023-11-22T08:22:42;14.38;;;6.18;;
38937;SDS011;24727;51.974;20.868;2023-11-22T08:25:08;36.08;;;12.07;;
38937;SDS011;24727;51.974;20.868;2023-11-22T08:27:39;16.00;;;6.00;;
38937;SDS011;24727;51.974;20.868;2023-11-22T08:30:09;8.32;;;4.65;;
38937;SDS011;24727;51.974;20.868;2023-11-22T08:32:41;8.55;;;4.72;;
38937;SDS011;24727;51.974;20.868;2023-11-22T08:35:10;13.10;;;5.83;;
38937;SDS011;24727;51.974;20.868;2023-11-22T08:37:39;9.30;;;4.15;;
38937;SDS011;24727;51.974;20.868;2023-11-22T08:40:08;12.25;;;4.85;;
38937;SDS011;24727;51.974;20.868;2023-11-22T08:42:39;16.20;;;5.90;;
38937;SDS011;24727;51.974;20.868;2023-11-22T08:45:06;14.20;;;5.13;;
38937;SDS011;24727;51.974;20.868;2023-11-22T08:47:33;8.60;;;4.50;;
38937;SDS011;24727;51.974;20.868;2023-11-22T08:50:00;7.07;;;4.07;;
38937;SDS011;24727;51.974;20.868;2023-11-22T08:52:30;8.27;;;4.47;;
38937;SDS011;24727;51.974;20.868;2023-11-22T08:54:56;7.50;;;3.90;;
38937;SDS011;24727;51.974;20.868;2023-11-22T08:57:23;14.35;;;5.20;;
38937;SDS011;24727;51.974;20.868;2023-11-22T08:59:49;12.43;;;4.50;;
38937;SDS011;24727;51.974;20.868;2023-11-22T09:02:15;13.13;;;4.45;;
38937;SDS011;24727;51.974;20.868;2023-11-22T09:04:46;10.68;;;4.18;;
38937;SDS011;24727;51.974;20.868;2023-11-22T09:07:13;12.18;;;4.32;;
38937;SDS011;24727;51.974;20.868;2023-11-22T09:09:40;7.15;;;4.05;;
38937;SDS011;24727;51.974;20.868;2023-11-22T09:12:07;8.60;;;3.97;;
38937;SDS011;24727;51.974;20.868;2023-11-22T09:14:39;13.32;;;5.05;;
38937;SDS011;24727;51.974;20.868;2023-11-22T09:17:08;8.55;;;4.63;;
38937;SDS011;24727;51.974;20.868;2023-11-22T09:19:34;15.45;;;5.78;;
38937;SDS011;24727;51.974;20.868;2023-11-22T09:22:01;10.05;;;4.72;;
38937;SDS011;24727;51.974;20.868;2023-11-22T09:24:28;13.32;;;5.35;;
38937;SDS011;24727;51.974;20.868;2023-11-22T09:26:53;7.03;;;3.80;;
38937;SDS011;24727;51.974;20.868;2023-11-22T09:29:21;20.88;;;8.30;;
38937;SDS011;24727;51.974;20.868;2023-11-22T09:31:47;11.23;;;5.70;;
38937;SDS011;24727;51.974;20.868;2023-11-22T09:34:13;10.90;;;5.40;;
38937;SDS011;24727;51.974;20.868;2023-11-22T09:36:40;8.07;;;4.60;;
38937;SDS011;24727;51.974;20.868;2023-11-22T09:39:08;8.27;;;4.20;;
38937;SDS011;24727;51.974;20.868;2023-11-22T09:41:35;9.23;;;4.80;;
38937;SDS011;24727;51.974;20.868;2023-11-22T09:44:02;12.05;;;4.63;;
38937;SDS011;24727;51.974;20.868;2023-11-22T09:46:29;42.15;;;13.13;;
38937;SDS011;24727;51.974;20.868;2023-11-22T09:48:56;19.60;;;6.38;;
38937;SDS011;24727;51.974;20.868;2023-11-22T09:51:29;7.95;;;4.50;;
38937;SDS011;24727;51.974;20.868;2023-11-22T09:54:03;12.02;;;3.78;;
38937;SDS011;24727;51.974;20.868;2023-11-22T09:56:34;7.57;;;3.97;;
38937;SDS011;24727;51.974;20.868;2023-11-22T09:59:04;9.02;;;4.30;;
38937;SDS011;24727;51.974;20.868;2023-11-22T10:01:32;22.90;;;7.95;;
38937;SDS011;24727;51.974;20.868;2023-11-22T10:04:04;7.22;;;3.97;;
38937;SDS011;24727;51.974;20.868;2023-11-22T10:06:31;11.40;;;5.40;;
38937;SDS011;24727;51.974;20.868;2023-11-22T10:09:00;8.30;;;4.15;;
38937;SDS011;24727;51.974;20.868;2023-11-22T10:11:31;7.57;;;4.70;;
38937;SDS011;24727;51.974;20.868;2023-11-22T10:13:58;10.45;;;5.28;;
38937;SDS011;24727;51.974;20.868;2023-11-22T10:16:24;7.78;;;4.38;;
38937;SDS011;24727;51.974;20.868;2023-11-22T10:18:50;8.68;;;4.13;;
38937;SDS011;24727;51.974;20.868;2023-11-22T10:21:26;8.27;;;4.45;;
38937;SDS011;24727;51.974;20.868;2023-11-22T10:23:57;7.18;;;4.43;;
38937;SDS011;24727;51.974;20.868;2023-11-22T10:26:27;10.20;;;4.32;;
38937;SDS011;24727;51.974;20.868;2023-11-22T10:28:54;8.52;;;4.85;;
38937;SDS011;24727;51.974;20.868;2023-11-22T10:31:21;14.75;;;5.50;;
38937;SDS011;24727;51.974;20.868;2023-11-22T10:33:49;10.45;;;4.43;;
38937;SDS011;24727;51.974;20.868;2023-11-22T10:36:15;9.10;;;4.90;;
38937;SDS011;24727;51.974;20.868;2023-11-22T10:38:49;10.18;;;5.25;;
38937;SDS011;24727;51.974;20.868;2023-11-22T10:41:16;9.20;;;5.07;;
38937;SDS011;24727;51.974;20.868;2023-11-22T10:43:43;6.57;;;3.90;;
38937;SDS011;24727;51.974;20.868;2023-11-22T10:46:12;8.80;;;4.13;;
38937;SDS011;24727;51.974;20.868;2023-11-22T10:48:39;8.27;;;4.18;;
38937;SDS011;24727;51.974;20.868;2023-11-22T10:51:05;7.78;;;4.25;;
38937;SDS011;24727;51.974;20.868;2023-11-22T10:53:35;9.63;;;5.15;;
38937;SDS011;24727;51.974;20.868;2023-11-22T10:56:16;12.90;;;4.22;;
38937;SDS011;24727;51.974;20.868;2023-11-22T10:58:49;7.50;;;4.03;;
38937;SDS011;24727;51.974;20.868;2023-11-22T11:01:23;12.35;;;4.90;;
38937;SDS011;24727;51.974;20.868;2023-11-22T11:04:00;6.25;;;3.50;;
38937;SDS011;24727;51.974;20.868;2023-11-22T11:06:33;5.65;;;3.33;;
38937;SDS011;24727;51.974;20.868;2023-11-22T11:09:02;9.77;;;4.80;;
38937;SDS011;24727;51.974;20.868;2023-11-22T11:11:36;6.72;;;3.97;;
38937;SDS011;24727;51.974;20.868;2023-11-22T11:14:06;9.63;;;4.22;;
38937;SDS011;24727;51.974;20.868;2023-11-22T11:19:07;5.63;;;3.10;;
38937;SDS011;24727;51.974;20.868;2023-11-22T11:21:35;6.95;;;3.13;;
38937;SDS011;24727;51.974;20.868;2023-11-22T11:24:01;4.93;;;3.03;;
38937;SDS011;24727;51.974;20.868;2023-11-22T11:26:34;12.40;;;5.35;;
38937;SDS011;24727;51.974;20.868;2023-11-22T11:29:00;8.07;;;4.05;;
38937;SDS011;24727;51.974;20.868;2023-11-22T11:31:32;7.93;;;3.70;;
38937;SDS011;24727;51.974;20.868;2023-11-22T11:34:02;7.70;;;3.47;;
38937;SDS011;24727;51.974;20.868;2023-11-22T11:36:31;6.40;;;3.35;;
38937;SDS011;24727;51.974;20.868;2023-11-22T11:38:59;6.18;;;3.22;;
38937;SDS011;24727;51.974;20.868;2023-11-22T11:41:40;7.17;;;3.30;;
38937;SDS011;24727;51.974;20.868;2023-11-22T11:44:07;6.57;;;3.55;;
38937;SDS011;24727;51.974;20.868;2023-11-22T11:46:36;5.05;;;2.92;;
38937;SDS011;24727;51.974;20.868;2023-11-22T11:49:08;7.28;;;3.97;;
38937;SDS011;24727;51.974;20.868;2023-11-22T11:51:40;7.68;;;3.30;;
38937;SDS011;24727;51.974;20.868;2023-11-22T11:54:07;7.72;;;3.63;;
38937;SDS011;24727;51.974;20.868;2023-11-22T11:56:34;8.02;;;3.75;;
38937;SDS011;24727;51.974;20.868;2023-11-22T11:59:01;7.45;;;3.22;;
38937;SDS011;24727;51.974;20.868;2023-11-22T12:01:30;7.85;;;3.47;;
38937;SDS011;24727;51.974;20.868;2023-11-22T12:03:57;5.35;;;2.95;;
38937;SDS011;24727;51.974;20.868;2023-11-22T12:06:25;5.47;;;2.83;;
38937;SDS011;24727;51.974;20.868;2023-11-22T12:08:54;12.77;;;5.30;;
38937;SDS011;24727;51.974;20.868;2023-11-22T12:11:20;8.95;;;3.72;;
38937;SDS011;24727;51.974;20.868;2023-11-22T12:13:46;7.05;;;3.15;;
38937;SDS011;24727;51.974;20.868;2023-11-22T12:16:14;5.72;;;3.10;;
38937;SDS011;24727;51.974;20.868;2023-11-22T12:18:42;4.65;;;2.70;;
38937;SDS011;24727;51.974;20.868;2023-11-22T12:21:10;5.50;;;2.83;;
38937;SDS011;24727;51.974;20.868;2023-11-22T12:23:41;5.47;;;2.85;;
38937;SDS011;24727;51.974;20.868;2023-11-22T12:26:16;19.05;;;9.88;;
38937;SDS011;24727;51.974;20.868;2023-11-22T12:28:48;10.07;;;4.55;;
38937;SDS011;24727;51.974;20.868;2023-11-22T12:31:15;6.35;;;3.55;;
38937;SDS011;24727;51.974;20.868;2023-11-22T12:33:42;4.38;;;2.75;;
38937;SDS011;24727;51.974;20.868;2023-11-22T12:36:10;9.65;;;3.40;;
38937;SDS011;24727;51.974;20.868;2023-11-22T12:38:40;5.57;;;3.08;;
38937;SDS011;24727;51.974;20.868;2023-11-22T12:41:08;6.28;;;3.30;;
38937;SDS011;24727;51.974;20.868;2023-11-22T12:43:34;4.57;;;2.50;;
38937;SDS011;24727;51.974;20.868;2023-11-22T12:46:01;7.97;;;3.72;;
38937;SDS011;24727;51.974;20.868;2023-11-22T12:48:29;6.38;;;3.75;;
38937;SDS011;24727;51.974;20.868;2023-11-22T12:50:55;6.90;;;3.33;;
38937;SDS011;24727;51.974;20.868;2023-11-22T12:53:22;5.63;;;3.00;;
38937;SDS011;24727;51.974;20.868;2023-11-22T12:55:51;5.93;;;3.30;;
38937;SDS011;24727;51.974;20.868;2023-11-22T12:58:19;5.95;;;3.65;;
38937;SDS011;24727;51.974;20.868;2023-11-22T13:00:47;6.90;;;3.72;;
38937;SDS011;24727;51.974;20.868;2023-11-22T13:03:15;6.38;;;3.20;;
38937;SDS011;24727;51.974;20.868;2023-11-22T13:05:43;6.45;;;3.63;;
38937;SDS011;24727;51.974;20.868;2023-11-22T13:08:12;6.82;;;3.28;;
38937;SDS011;24727;51.974;20.868;2023-11-22T13:10:42;6.72;;;3.42;;
38937;SDS011;24727;51.974;20.868;2023-11-22T13:13:09;8.05;;;3.78;;
38937;SDS011;24727;51.974;20.868;2023-11-22T13:15:35;6.45;;;3.65;;
38937;SDS011;24727;51.974;20.868;2023-11-22T13:18:02;7.97;;;3.38;;
38937;SDS011;24727;51.974;20.868;2023-11-22T13:20:29;8.20;;;3.80;;
38937;SDS011;24727;51.974;20.868;2023-11-22T13:22:55;5.97;;;3.22;;
38937;SDS011;24727;51.974;20.868;2023-11-22T13:25:21;7.15;;;3.28;;
38937;SDS011;24727;51.974;20.868;2023-11-22T13:27:50;8.10;;;3.80;;
38937;SDS011;24727;51.974;20.868;2023-11-22T13:30:17;7.28;;;3.60;;
38937;SDS011;24727;51.974;20.868;2023-11-22T13:32:47;5.10;;;3.30;;
38937;SDS011;24727;51.974;20.868;2023-11-22T13:35:14;10.35;;;3.95;;
38937;SDS011;24727;51.974;20.868;2023-11-22T13:37:43;7.32;;;4.40;;
38937;SDS011;24727;51.974;20.868;2023-11-22T13:40:10;8.32;;;4.55;;
38937;SDS011;24727;51.974;20.868;2023-11-22T13:42:46;7.63;;;3.80;;
38937;SDS011;24727;51.974;20.868;2023-11-22T13:45:14;8.73;;;3.85;;
38937;SDS011;24727;51.974;20.868;2023-11-22T13:47:46;8.65;;;3.92;;
38937;SDS011;24727;51.974;20.868;2023-11-22T13:50:14;5.43;;;3.28;;
38937;SDS011;24727;51.974;20.868;2023-11-22T13:52:44;6.88;;;3.47;;
38937;SDS011;24727;51.974;20.868;2023-11-22T13:55:16;5.60;;;3.33;;
38937;SDS011;24727;51.974;20.868;2023-11-22T13:57:47;6.15;;;3.13;;
38937;SDS011;24727;51.974;20.868;2023-11-22T14:00:15;6.82;;;3.60;;
38937;SDS011;24727;51.974;20.868;2023-11-22T14:02:45;7.43;;;4.15;;
38937;SDS011;24727;51.974;20.868;2023-11-22T14:05:14;6.57;;;3.17;;
38937;SDS011;24727;51.974;20.868;2023-11-22T14:07:41;8.00;;;4.35;;
38937;SDS011;24727;51.974;20.868;2023-11-22T14:10:08;5.05;;;2.95;;
38937;SDS011;24727;51.974;20.868;2023-11-22T14:12:35;10.07;;;2.85;;
38937;SDS011;24727;51.974;20.868;2023-11-22T14:15:03;6.65;;;3.22;;
38937;SDS011;24727;51.974;20.868;2023-11-22T14:17:31;6.55;;;3.30;;
38937;SDS011;24727;51.974;20.868;2023-11-22T14:19:59;6.75;;;3.28;;
38937;SDS011;24727;51.974;20.868;2023-11-22T14:22:25;10.70;;;4.07;;
38937;SDS011;24727;51.974;20.868;2023-11-22T14:24:52;6.20;;;3.72;;
38937;SDS011;24727;51.974;20.868;2023-11-22T14:27:18;9.32;;;3.10;;
38937;SDS011;24727;51.974;20.868;2023-11-22T14:29:46;8.60;;;3.95;;
38937;SDS011;24727;51.974;20.868;2023-11-22T14:32:16;6.55;;;3.58;;
38937;SDS011;24727;51.974;20.868;2023-11-22T14:34:43;7.28;;;3.70;;
38937;SDS011;24727;51.974;20.868;2023-11-22T14:37:10;9.10;;;3.60;;
38937;SDS011;24727;51.974;20.868;2023-11-22T14:39:43;7.40;;;3.78;;
38937;SDS011;24727;51.974;20.868;2023-11-22T14:42:09;6.38;;;3.72;;